createdAt,value
2019-04-07T00:00:28.291Z,94468.14
2019-04-07T00:03:00.219Z,94471.39
2019-04-07T00:05:32.119Z,94471.80
2019-04-07T00:08:03.675Z,94474.27
2019-04-07T00:10:35.623Z,94478.36
2019-04-07T00:13:07.192Z,94476.24
2019-04-07T00:15:38.990Z,94473.17
2019-04-07T00:18:10.640Z,94482.77
2019-04-07T00:20:42.226Z,94476.59
2019-04-07T00:23:14.815Z,94469.27
2019-04-07T00:25:46.772Z,94473.00
2019-04-07T00:28:19.654Z,94466.48
2019-04-07T00:30:51.419Z,94469.91
2019-04-07T00:33:24.024Z,94471.20
2019-04-07T00:35:55.907Z,94459.97
2019-04-07T00:38:27.488Z,94457.82
2019-04-07T00:40:59.249Z,94454.40
2019-04-07T00:43:30.684Z,94467.93
2019-04-07T00:46:02.433Z,94458.31
2019-04-07T00:48:34.030Z,94468.92
2019-04-07T00:51:05.374Z,94471.34
2019-04-07T00:53:37.529Z,94458.00
2019-04-07T00:56:09.374Z,94464.38
2019-04-07T00:58:40.822Z,94457.19
2019-04-07T01:01:14.169Z,94461.41
2019-04-07T01:03:45.732Z,94452.59
2019-04-07T01:06:17.566Z,94459.25
2019-04-07T01:08:50.123Z,94459.75
2019-04-07T01:11:21.639Z,94458.27
2019-04-07T01:13:53.951Z,94445.54
2019-04-07T01:16:25.473Z,94443.80
2019-04-07T01:18:57.015Z,94448.38
2019-04-07T01:21:29.172Z,94439.43
2019-04-07T01:24:00.738Z,94440.09
2019-04-07T01:26:32.713Z,94433.64
2019-04-07T01:29:04.673Z,94433.46
2019-04-07T01:31:36.229Z,94427.61
2019-04-07T01:34:08.196Z,94427.14
2019-04-07T01:36:39.775Z,94433.16
2019-04-07T01:39:12.026Z,94423.23
2019-04-07T01:42:05.899Z,94423.08
2019-04-07T01:44:56.131Z,94425.66
2019-04-07T01:47:44.268Z,94422.58
2019-04-07T01:50:37.602Z,94418.19
2019-04-07T01:53:38.604Z,94421.93
2019-04-07T01:56:32.609Z,94421.44
2019-04-07T01:59:13.473Z,94425.99
2019-04-07T02:02:07.157Z,94430.39
2019-04-07T02:04:56.124Z,94428.42
2019-04-07T02:07:47.375Z,94426.63
2019-04-07T02:10:31.571Z,94427.94
2019-04-07T02:13:27.560Z,94426.45
2019-04-07T02:16:23.750Z,94432.48
2019-04-07T02:19:14.220Z,94429.90
2019-04-07T02:22:04.651Z,94425.01
2019-04-07T02:24:49.919Z,94424.98
2019-04-07T02:27:30.693Z,94432.33
2019-04-07T02:30:14.367Z,94427.28
2019-04-07T02:33:03.899Z,94428.94
2019-04-07T02:36:21.570Z,94423.39
2019-04-07T02:38:56.100Z,94425.50
2019-04-07T02:41:44.814Z,94424.03
2019-04-07T02:44:48.243Z,94428.25
2019-04-07T02:47:31.540Z,94425.47
2019-04-07T02:50:39.964Z,94415.55
2019-04-07T02:53:45.510Z,94418.12
2019-04-07T02:56:37.110Z,94419.11
2019-04-07T02:59:25.738Z,94423.53
2019-04-07T03:02:03.310Z,94419.80
2019-04-07T03:04:56.955Z,94420.63
2019-04-07T03:07:48.690Z,94420.44
2019-04-07T03:10:31.204Z,94422.41
2019-04-07T03:13:19.218Z,94419.16
2019-04-07T03:16:19.238Z,94409.88
2019-04-07T03:19:15.775Z,94415.73
2019-04-07T03:22:06.393Z,94417.69
2019-04-07T03:24:57.302Z,94419.28
2019-04-07T03:27:57.852Z,94413.94
2019-04-07T03:30:40.945Z,94414.56
2019-04-07T03:33:40.675Z,94420.45
2019-04-07T03:36:30.230Z,94413.14
2019-04-07T03:39:30.138Z,94412.66
2019-04-07T03:42:26.292Z,94411.67
2019-04-07T03:45:20.344Z,94410.54
2019-04-07T03:48:17.770Z,94412.98
2019-04-07T03:51:05.349Z,94413.95
2019-04-07T03:53:52.144Z,94409.89
2019-04-07T03:56:37.354Z,94419.47
2019-04-07T03:59:42.696Z,94411.51
2019-04-07T04:02:39.146Z,94418.02
2019-04-07T04:05:29.713Z,94412.97
2019-04-07T04:08:19.337Z,94416.86
2019-04-07T04:11:12.775Z,94413.63
2019-04-07T04:14:03.056Z,94412.31
2019-04-07T04:16:42.843Z,94410.22
2019-04-07T04:19:14.539Z,94405.14
2019-04-07T04:21:46.218Z,94407.58
2019-04-07T04:24:18.509Z,94407.58
2019-04-07T04:26:51.715Z,94406.45
2019-04-07T04:29:24.605Z,94407.42
2019-04-07T04:31:57.177Z,94408.55
2019-04-07T04:34:28.929Z,94411.47
2019-04-07T04:37:00.432Z,94404.82
2019-04-07T04:39:31.951Z,94403.98
2019-04-07T04:42:03.972Z,94405.16
2019-04-07T04:44:35.942Z,94406.80
2019-04-07T04:47:08.102Z,94411.34
2019-04-07T04:49:40.360Z,94411.98
2019-04-07T04:52:12.243Z,94410.03
2019-04-07T04:54:43.893Z,94416.89
2019-04-07T04:57:15.479Z,94413.64
2019-04-07T04:59:46.874Z,94424.37
2019-04-07T05:02:18.091Z,94426.13
2019-04-07T05:04:49.742Z,94426.62
2019-04-07T05:07:22.189Z,94425.98
2019-04-07T05:09:55.726Z,94426.14
2019-04-07T05:12:27.490Z,94431.86
2019-04-07T05:14:59.209Z,94428.42
2019-04-07T05:17:31.135Z,94428.25
2019-04-07T05:20:02.936Z,94426.92
2019-04-07T05:22:34.223Z,94429.17
2019-04-07T05:25:06.999Z,94429.17
2019-04-07T05:27:39.197Z,94427.91
2019-04-07T05:30:11.233Z,94435.58
2019-04-07T05:32:43.174Z,94427.88
2019-04-07T05:35:14.936Z,94424.11
2019-04-07T05:37:46.352Z,94425.59
2019-04-07T05:40:17.648Z,94421.63
2019-04-07T05:42:49.669Z,94431.11
2019-04-07T05:45:21.482Z,94431.33
2019-04-07T05:47:53.492Z,94429.69
2019-04-07T05:50:27.455Z,94426.16
2019-04-07T05:52:58.780Z,94433.72
2019-04-07T05:55:30.502Z,94435.22
2019-04-07T05:58:05.204Z,94430.13
2019-04-07T06:00:35.088Z,94434.84
2019-04-07T06:03:08.435Z,94440.62
2019-04-07T06:05:40.141Z,94441.94
2019-04-07T06:08:26.002Z,94446.30
2019-04-07T06:10:45.881Z,94429.78
2019-04-07T06:13:17.614Z,94439.77
2019-04-07T06:15:51.944Z,94437.52
2019-04-07T06:18:23.949Z,94435.11
2019-04-07T06:20:56.369Z,94435.59
2019-04-07T06:23:29.867Z,94437.04
2019-04-07T06:26:02.010Z,94443.24
2019-04-07T06:28:33.838Z,94443.06
2019-04-07T06:31:06.517Z,94445.98
2019-04-07T06:33:39.246Z,94441.95
2019-04-07T06:36:11.506Z,94449.31
2019-04-07T06:38:50.885Z,94445.86
2019-04-07T06:41:17.300Z,94447.65
2019-04-07T06:43:49.599Z,94449.40
2019-04-07T06:46:33.231Z,94451.70
2019-04-07T06:49:22.078Z,94455.97
2019-04-07T06:52:02.820Z,94455.78
2019-04-07T06:54:55.664Z,94454.75
2019-04-07T06:57:49.183Z,94458.64
2019-04-07T07:00:29.202Z,94454.66
2019-04-07T07:03:35.890Z,94443.05
2019-04-07T07:06:21.944Z,94452.13
2019-04-07T07:09:26.559Z,94451.13
2019-04-07T07:12:22.487Z,94450.30
2019-04-07T07:15:20.612Z,94457.26
2019-04-07T07:18:22.936Z,94455.95
2019-04-07T07:21:11.089Z,94454.28
2019-04-07T07:23:47.722Z,94455.28
2019-04-07T07:26:16.097Z,94458.86
2019-04-07T07:28:47.743Z,94457.81
2019-04-07T07:31:22.844Z,94457.83
2019-04-07T07:33:51.936Z,94460.64
2019-04-07T07:36:23.978Z,94456.16
2019-04-07T07:39:01.665Z,94459.13
2019-04-07T07:41:29.253Z,94460.16
2019-04-07T07:44:03.460Z,94461.47
2019-04-07T07:46:33.336Z,94456.43
2019-04-07T07:49:04.279Z,94459.44
2019-04-07T07:51:38.428Z,94454.98
2019-04-07T07:54:08.823Z,94456.88
2019-04-07T07:56:42.445Z,94461.32
2019-04-07T07:59:14.539Z,94460.17
2019-04-07T08:01:47.045Z,94466.49
2019-04-07T08:04:19.104Z,94470.05
2019-04-07T08:06:50.277Z,94467.05
2019-04-07T08:09:24.958Z,94466.03
2019-04-07T08:11:55.352Z,94465.73
2019-04-07T08:14:27.334Z,94467.95
2019-04-07T08:17:02.244Z,94466.98
2019-04-07T08:19:31.810Z,94463.35
2019-04-07T08:22:03.139Z,94462.66
2019-04-07T08:24:35.114Z,94457.80
2019-04-07T08:27:06.390Z,94453.20
2019-04-07T08:29:39.042Z,94455.08
2019-04-07T08:32:11.084Z,94457.31
2019-04-07T08:34:43.771Z,94453.18
2019-04-07T08:37:15.516Z,94451.89
2019-04-07T08:39:47.565Z,94448.80
2019-04-07T08:42:19.748Z,94448.36
2019-04-07T08:44:52.004Z,94445.65
2019-04-07T08:47:23.427Z,94438.09
2019-04-07T08:49:56.868Z,94438.72
2019-04-07T08:52:28.178Z,94435.38
2019-04-07T08:54:59.373Z,94431.11
2019-04-07T08:57:32.268Z,94433.83
2019-04-07T09:00:05.084Z,94430.05
2019-04-07T09:02:38.213Z,94424.78
2019-04-07T09:05:10.407Z,94422.30
2019-04-07T09:07:42.160Z,94415.23
2019-04-07T09:10:20.443Z,94406.44
2019-04-07T09:12:51.157Z,94408.60
2019-04-07T09:15:32.855Z,94409.83
2019-04-07T09:18:12.725Z,94409.83
2019-04-07T09:21:15.668Z,94405.48
2019-04-07T09:24:07.111Z,94407.69
2019-04-07T09:26:52.414Z,94404.80
2019-04-07T09:29:43.169Z,94398.27
2019-04-07T09:32:46.021Z,94405.71
2019-04-07T09:35:36.221Z,94404.25
2019-04-07T09:38:26.603Z,94398.20
2019-04-07T09:41:07.363Z,94397.28
2019-04-07T09:43:55.620Z,94392.73
2019-04-07T09:46:48.348Z,94387.86
2019-04-07T09:49:35.338Z,94382.39
2019-04-07T09:52:23.383Z,94388.50
2019-04-07T09:55:19.998Z,94375.75
2019-04-07T09:58:10.838Z,94376.23
2019-04-07T10:00:59.688Z,94368.91
2019-04-07T10:03:49.668Z,94372.89
2019-04-07T10:06:39.269Z,94366.61
2019-04-07T10:09:20.332Z,94364.59
2019-04-07T10:12:28.134Z,94364.29
2019-04-07T10:15:15.466Z,94346.40
2019-04-07T10:18:01.870Z,94346.40
2019-04-07T10:20:44.693Z,94355.68
2019-04-07T10:23:38.562Z,94347.34
2019-04-07T10:26:39.365Z,94345.56
2019-04-07T10:29:32.969Z,94349.69
2019-04-07T10:32:24.760Z,94342.61
2019-04-07T10:35:14.029Z,94327.58
2019-04-07T10:38:02.086Z,94327.73
2019-04-07T10:40:51.222Z,94321.02
2019-04-07T10:43:45.166Z,94322.04
2019-04-07T10:46:38.045Z,94318.93
2019-04-07T10:49:37.306Z,94308.22
2019-04-07T10:52:32.634Z,94315.69
2019-04-07T10:55:22.618Z,94309.52
2019-04-07T10:58:10.559Z,94301.69
2019-04-07T11:01:16.748Z,94300.87
2019-04-07T11:04:01.862Z,94310.30
2019-04-07T11:06:50.052Z,94300.47
2019-04-07T11:09:38.944Z,94301.15
2019-04-07T11:12:32.193Z,94296.69
2019-04-07T11:15:24.968Z,94297.63
2019-04-07T11:18:15.152Z,94286.63
2019-04-07T11:21:12.077Z,94287.97
2019-04-07T11:23:54.447Z,94291.17
2019-04-07T11:26:56.817Z,94288.82
2019-04-07T11:29:39.641Z,94288.86
2019-04-07T11:32:30.417Z,94279.52
2019-04-07T11:35:09.733Z,94278.73
2019-04-07T11:37:47.383Z,94271.08
2019-04-07T11:40:41.503Z,94272.42
2019-04-07T11:43:28.010Z,94276.52
2019-04-07T11:46:11.946Z,94277.03
2019-04-07T11:48:47.735Z,94282.06
2019-04-07T11:51:42.491Z,94267.73
2019-04-07T11:54:28.261Z,94267.73
2019-04-07T11:57:31.210Z,94262.73
2019-04-07T12:00:20.891Z,94256.30
2019-04-07T12:03:09.596Z,94256.30
2019-04-07T12:06:14.226Z,94262.34
2019-04-07T12:09:06.867Z,94262.66
2019-04-07T12:11:50.455Z,94260.88
2019-04-07T12:14:30.815Z,94256.33
2019-04-07T12:17:26.285Z,94251.34
2019-04-07T12:20:33.872Z,94247.91
2019-04-07T12:23:25.688Z,94238.95
2019-04-07T12:26:14.115Z,94233.97
2019-04-07T12:29:02.927Z,94229.22
2019-04-07T12:31:52.144Z,94229.22
2019-04-07T12:34:44.044Z,94233.66
2019-04-07T12:37:30.787Z,94232.30
2019-04-07T12:40:22.456Z,94236.19
2019-04-07T12:43:15.446Z,94222.44
2019-04-07T12:45:55.562Z,94223.80
2019-04-07T12:48:46.940Z,94224.52
2019-04-07T12:51:43.049Z,94219.70
2019-04-07T12:54:23.489Z,94224.24
2019-04-07T12:57:16.849Z,94228.15
2019-04-07T12:59:59.607Z,94221.73
2019-04-07T13:02:56.704Z,94218.46
2019-04-07T13:05:49.939Z,94224.29
2019-04-07T13:08:43.580Z,94219.56
2019-04-07T13:11:38.654Z,94217.25
2019-04-07T13:14:38.570Z,94220.52
2019-04-07T13:17:17.515Z,94211.93
2019-04-07T13:20:05.153Z,94215.42
2019-04-07T13:22:54.892Z,94221.25
2019-04-07T13:25:45.470Z,94204.95
2019-04-07T13:28:35.932Z,94212.34
2019-04-07T13:31:16.217Z,94198.66
2019-04-07T13:34:21.301Z,94198.66
2019-04-07T13:37:17.620Z,94204.22
2019-04-07T13:40:15.784Z,94216.00
2019-04-07T13:43:18.691Z,94216.91
2019-04-07T13:46:17.638Z,94210.34
2019-04-07T13:48:54.781Z,94209.00
2019-04-07T13:51:47.344Z,94199.15
2019-04-07T13:54:55.877Z,94201.73
2019-04-07T13:57:57.726Z,94207.90
2019-04-07T14:00:47.758Z,94202.44
2019-04-07T14:03:35.817Z,94202.44
2019-04-07T14:06:29.495Z,94200.17
2019-04-07T14:09:21.169Z,94199.27
2019-04-07T14:12:12.829Z,94201.73
2019-04-07T14:15:02.946Z,94199.91
2019-04-07T14:17:51.799Z,94199.43
2019-04-07T14:20:46.423Z,94188.64
2019-04-07T14:23:41.014Z,94194.30
2019-04-07T14:26:31.340Z,94194.06
2019-04-07T14:29:24.621Z,94195.86
2019-04-07T14:32:14.154Z,94197.36
2019-04-07T14:35:02.292Z,94197.22
2019-04-07T14:37:49.501Z,94192.17
2019-04-07T14:40:57.672Z,94185.37
2019-04-07T14:43:40.893Z,94192.42
2019-04-07T14:46:29.137Z,94190.21
2019-04-07T14:49:27.575Z,94199.00
2019-04-07T14:52:05.662Z,94194.03
2019-04-07T14:54:58.003Z,94193.45
2019-04-07T14:57:34.438Z,94193.67
2019-04-07T15:00:20.313Z,94195.79
2019-04-07T15:02:51.730Z,94206.02
2019-04-07T15:05:26.292Z,94191.92
2019-04-07T15:08:16.392Z,94202.69
2019-04-07T15:10:51.575Z,94198.77
2019-04-07T15:13:28.061Z,94198.77
2019-04-07T15:15:58.366Z,94207.17
2019-04-07T15:18:29.805Z,94195.36
2019-04-07T15:21:01.005Z,94201.15
2019-04-07T15:23:33.451Z,94192.95
2019-04-07T15:26:05.998Z,94192.95
2019-04-07T15:28:38.382Z,94194.66
2019-04-07T15:31:09.777Z,94198.60
2019-04-07T15:33:42.449Z,94193.27
2019-04-07T15:36:17.534Z,94193.27
2019-04-07T15:38:47.547Z,94198.70
2019-04-07T15:41:19.578Z,94198.70
2019-04-07T15:43:50.965Z,94199.33
2019-04-07T15:46:23.596Z,94204.75
2019-04-07T15:48:56.745Z,94197.19
2019-04-07T15:51:28.335Z,94198.70
2019-04-07T15:54:00.647Z,94198.70
2019-04-07T15:56:32.571Z,94206.92
2019-04-07T15:59:03.730Z,94201.37
2019-04-07T16:01:38.735Z,94213.61
2019-04-07T16:04:09.725Z,94201.60
2019-04-07T16:06:41.936Z,94205.64
2019-04-07T16:09:28.413Z,94198.38
2019-04-07T16:11:49.586Z,94198.38
2019-04-07T16:14:20.883Z,94190.20
2019-04-07T16:16:53.427Z,94198.28
2019-04-07T16:19:37.258Z,94208.97
2019-04-07T16:21:58.176Z,94212.03
2019-04-07T16:24:31.516Z,94212.73
2019-04-07T16:27:05.437Z,94207.56
2019-04-07T16:29:36.485Z,94207.56
2019-04-07T16:32:08.155Z,94208.70
2019-04-07T16:34:42.182Z,94208.69
2019-04-07T16:37:12.297Z,94210.22
2019-04-07T16:39:44.529Z,94210.22
2019-04-07T16:42:16.256Z,94213.44
2019-04-07T16:44:48.315Z,94213.44
2019-04-07T16:47:23.815Z,94216.58
2019-04-07T16:49:52.424Z,94222.84
2019-04-07T16:52:23.341Z,94222.84
2019-04-07T16:54:54.737Z,94231.61
2019-04-07T16:57:30.957Z,94231.61
2019-04-07T17:00:00.297Z,94225.55
2019-04-07T17:02:31.721Z,94233.39
2019-04-07T17:05:02.837Z,94222.47
2019-04-07T17:07:34.232Z,94222.47
2019-04-07T17:10:06.855Z,94230.22
2019-04-07T17:12:40.648Z,94238.72
2019-04-07T17:15:12.292Z,94234.66
2019-04-07T17:17:48.591Z,94238.45
2019-04-07T17:20:18.985Z,94238.64
2019-04-07T17:22:51.101Z,94239.14
2019-04-07T17:25:22.879Z,94233.41
2019-04-07T17:27:54.027Z,94237.83
2019-04-07T17:30:27.153Z,94233.17
2019-04-07T17:32:59.687Z,94241.28
2019-04-07T17:35:30.774Z,94238.64
2019-04-07T17:38:06.659Z,94233.28
2019-04-07T17:40:45.216Z,94241.28
2019-04-07T17:43:47.343Z,94248.93
2019-04-07T17:46:27.514Z,94253.73
2019-04-07T17:49:16.665Z,94251.23
2019-04-07T17:51:58.613Z,94251.11
2019-04-07T17:54:54.112Z,94258.16
2019-04-07T17:57:37.076Z,94258.17
2019-04-07T18:00:32.154Z,94264.58
2019-04-07T18:03:16.355Z,94270.13
2019-04-07T18:06:10.078Z,94274.28
2019-04-07T18:08:49.585Z,94273.54
2019-04-07T18:11:53.459Z,94280.15
2019-04-07T18:14:38.606Z,94274.67
2019-04-07T18:17:28.863Z,94277.05
2019-04-07T18:20:28.293Z,94276.95
2019-04-07T18:23:24.064Z,94281.55
2019-04-07T18:26:06.313Z,94284.28
2019-04-07T18:28:58.484Z,94283.91
2019-04-07T18:31:40.333Z,94285.64
2019-04-07T18:34:36.556Z,94286.69
2019-04-07T18:37:26.141Z,94279.83
2019-04-07T18:40:21.114Z,94284.01
2019-04-07T18:43:13.850Z,94286.65
2019-04-07T18:46:08.669Z,94280.97
2019-04-07T18:49:01.149Z,94275.81
2019-04-07T18:51:50.695Z,94284.19
2019-04-07T18:54:44.547Z,94284.26
2019-04-07T18:57:30.574Z,94284.77
2019-04-07T19:00:21.952Z,94286.02
2019-04-07T19:03:18.179Z,94281.65
2019-04-07T19:05:55.456Z,94277.11
2019-04-07T19:08:47.079Z,94277.84
2019-04-07T19:11:32.658Z,94281.59
2019-04-07T19:14:38.129Z,94283.52
2019-04-07T19:17:03.305Z,94281.90
2019-04-07T19:19:48.458Z,94273.93
2019-04-07T19:22:36.710Z,94283.70
2019-04-07T19:25:46.901Z,94284.96
2019-04-07T19:28:42.738Z,94281.90
2019-04-07T19:31:48.020Z,94285.77
2019-04-07T19:34:45.665Z,94277.77
2019-04-07T19:37:26.351Z,94286.27
2019-04-07T19:40:23.573Z,94284.15
2019-04-07T19:43:18.297Z,94277.84
2019-04-07T19:46:09.109Z,94278.25
2019-04-07T19:49:18.943Z,94272.91
2019-04-07T19:52:07.058Z,94274.78
2019-04-07T19:55:05.878Z,94278.38
2019-04-07T19:57:48.933Z,94271.00
2019-04-07T20:00:45.892Z,94267.63
2019-04-07T20:03:26.373Z,94265.73
2019-04-07T20:06:14.854Z,94274.12
2019-04-07T20:09:23.594Z,94274.35
2019-04-07T20:12:21.948Z,94276.23
2019-04-07T20:15:16.032Z,94266.31
2019-04-07T20:18:05.278Z,94262.24
2019-04-07T20:20:45.027Z,94265.51
2019-04-07T20:23:50.144Z,94270.31
2019-04-07T20:27:28.100Z,94261.48
2019-04-07T20:30:17.589Z,94258.82
2019-04-07T20:33:17.159Z,94263.47
2019-04-07T20:36:06.836Z,94256.83
2019-04-07T20:38:49.931Z,94251.79
2019-04-07T20:41:43.631Z,94254.98
2019-04-07T20:44:34.029Z,94252.02
2019-04-07T20:47:28.262Z,94256.13
2019-04-07T20:50:24.083Z,94251.06
2019-04-07T20:53:22.865Z,94249.17
2019-04-07T20:56:11.558Z,94249.44
2019-04-07T20:59:05.719Z,94254.13
2019-04-07T21:02:01.596Z,94247.60
2019-04-07T21:04:34.330Z,94238.64
2019-04-07T21:07:24.996Z,94246.02
2019-04-07T21:10:07.606Z,94242.95
2019-04-07T21:13:03.416Z,94246.79
2019-04-07T21:15:56.239Z,94243.75
2019-04-07T21:18:46.883Z,94242.45
2019-04-07T21:21:39.588Z,94240.34
2019-04-07T21:24:49.756Z,94238.30
2019-04-07T21:27:33.723Z,94237.33
2019-04-07T21:30:24.889Z,94237.25
2019-04-07T21:33:02.808Z,94242.44
2019-04-07T21:35:58.978Z,94235.59
2019-04-07T21:38:43.323Z,94235.09
2019-04-07T21:41:41.513Z,94239.09
2019-04-07T21:44:38.502Z,94228.45
2019-04-07T21:47:44.075Z,94225.48
2019-04-07T21:50:52.001Z,94224.03
2019-04-07T21:53:36.810Z,94223.65
2019-04-07T21:56:15.679Z,94223.95
2019-04-07T21:59:04.348Z,94224.39
2019-04-07T22:01:55.074Z,94223.58
2019-04-07T22:04:54.562Z,94217.38
2019-04-07T22:07:33.797Z,94223.53
2019-04-07T22:10:07.325Z,94216.97
2019-04-07T22:12:40.764Z,94214.31
2019-04-07T22:15:14.069Z,94211.74
2019-04-07T22:17:45.789Z,94212.89
2019-04-07T22:20:18.930Z,94207.59
2019-04-07T22:22:50.239Z,94204.86
2019-04-07T22:25:30.722Z,94207.52
2019-04-07T22:28:01.901Z,94203.66
2019-04-07T22:30:36.072Z,94205.25
2019-04-07T22:33:06.159Z,94207.13
2019-04-07T22:35:41.195Z,94206.05
2019-04-07T22:38:10.240Z,94205.70
2019-04-07T22:40:41.637Z,94209.31
2019-04-07T22:43:16.689Z,94205.36
2019-04-07T22:45:55.768Z,94205.70
2019-04-07T22:48:18.516Z,94206.13
2019-04-07T22:50:49.788Z,94203.33
2019-04-07T22:53:23.229Z,94200.98
2019-04-07T22:55:54.743Z,94198.86
2019-04-07T22:58:25.822Z,94202.44
2019-04-07T23:00:57.003Z,94194.91
2019-04-07T23:03:28.067Z,94196.30
2019-04-07T23:05:59.376Z,94192.55
2019-04-07T23:08:30.406Z,94195.52
2019-04-07T23:11:02.189Z,94193.33
2019-04-07T23:13:33.179Z,94197.67
2019-04-07T23:16:10.773Z,94195.41
2019-04-07T23:18:38.030Z,94193.91
2019-04-07T23:21:10.203Z,94191.98
2019-04-07T23:23:42.036Z,94183.45
2019-04-07T23:26:13.871Z,94191.52
2019-04-07T23:28:45.184Z,94186.83
2019-04-07T23:31:16.723Z,94186.18
2019-04-07T23:33:50.147Z,94190.61
2019-04-07T23:36:22.113Z,94183.30
2019-04-07T23:38:53.860Z,94173.76
2019-04-07T23:41:25.609Z,94175.61
2019-04-07T23:43:56.838Z,94175.68
2019-04-07T23:46:28.514Z,94173.52
2019-04-07T23:48:59.910Z,94168.58
2019-04-07T23:51:30.975Z,94169.87
2019-04-07T23:54:11.311Z,94157.05
2019-04-07T23:56:44.035Z,94157.48
2019-04-07T23:59:15.471Z,94158.18
